• Join FlightAware (Why Join?)
  • Login
  • US Flag GB Flag 
21:47 EDT


 

Airport Tracker/Info


-or-


 

Live Flight TrackerFlight Track Log ✈ SWA2166 ✈ 08-Apr-2013 ✈ KBHM - KHOU

Flight Track Log - Related Links

Times and Time Zones

All times are in EDT time to prevent confusion due to time zone crossing. See the SWA2166 flight status page for this flight to view local times or setup timezone preferences in your user account.

Time Position Orientation Groundspeed Altitude Reporting Facility
EDT Latitude Longitude Course Direction KTS MPH feet Rate Location/Type
19:04 33.5444 -86.7928 242° Southwest 164 189 2,300  Level Atlanta Center
19:05 33.5097 -86.8467 232° Southwest 209 241 5,200 2,880 Climbing Atlanta Center
19:06 33.4753 -86.8928 228° Southwest 271 312 7,600 3,000 Climbing Atlanta Center
19:07 33.4258 -86.9533 226° Southwest 269 310 10,700 3,240 Climbing Atlanta Center
19:08 33.3656 -87.0311 227° Southwest 296 341 14,100 3,540 Climbing Atlanta Center
19:09 33.3069 -87.1183 231° Southwest 324 373 17,800 3,480 Climbing Atlanta Center
19:10 33.2419 -87.2106 230° Southwest 351 404 21,100 2,580 Climbing Atlanta Center
19:11 33.1747 -87.3097 231° Southwest 375 432 23,000 2,040 Climbing Atlanta Center
19:12 33.1053 -87.4089 230° Southwest 388 447 25,200 2,460 Climbing Atlanta Center
19:13 33.0336 -87.5128 231° Southwest 394 453 28,000 2,460 Climbing Atlanta Center
19:14 32.9594 -87.6261 232° Southwest 399 459 30,200 2,280 Climbing Atlanta Center
19:15 32.8700 -87.7478 229° Southwest 421 484 33,100 2,340 Climbing Memphis Center
19:16 32.7969 -87.8489 229° Southwest 421 484 35,500 2,340 Climbing Memphis Center
19:17 32.7325 -87.9717 238° Southwest 407 468 37,800 1,920 Climbing Memphis Center
19:18 32.6972 -88.0911 251° West 385 443 39,400 1,080 Climbing Memphis Center
19:19 32.6617 -88.2106 251° West 391 450 40,000 300 Climbing Memphis Center
19:20 32.6261 -88.3322 251° West 391 450 40,000  Level Memphis Center
19:21 32.5864 -88.4514 248° West 391 450 40,000  Level Memphis Center
19:22 32.5506 -88.5681 250° West 391 450 40,000  Level Memphis Center
19:23 32.5144 -88.6869 250° West 391 450 40,000  Level Memphis Center
19:24 32.4764 -88.8058 249° West 391 450 40,000  Level Memphis Center
19:25 32.4381 -88.9247 249° West 391 450 40,000  Level Memphis Center
19:26 32.4019 -89.0433 250° West 391 450 40,000  Level Memphis Center
19:27 32.3656 -89.1669 251° West 391 450 40,000  Level Memphis Center
19:28 32.3269 -89.2831 249° West 391 450 40,000  Level Memphis Center
19:29 32.2883 -89.4064 250° West 391 450 40,000  Level Memphis Center
19:30 32.2517 -89.5247 250° West 391 450 40,000  Level Memphis Center
19:31 32.2128 -89.6453 249° West 391 450 40,000  Level Memphis Center
19:32 32.1736 -89.7633 249° West 391 450 40,000  Level Memphis Center
19:33 32.1344 -89.8839 249° West 391 450 40,000  Level Memphis Center
19:34 32.0953 -90.0042 249° West 391 450 40,000  Level Memphis Center
19:35 32.0558 -90.1219 248° West 391 450 40,000  Level Memphis Center
19:36 32.0183 -90.2422 250° West 391 450 40,000  Level Memphis Center
19:37 31.9789 -90.3647 249° West 391 450 40,000  Level Memphis Center
19:38 31.9411 -90.4797 249° West 391 450 40,000  Level Memphis Center
19:39 31.9014 -90.5997 249° West 391 450 40,000  Level Memphis Center
19:40 31.8544 -90.7419 249° West 397 457 40,000  Level Houston Center
19:41 31.8197 -90.8583 251° West 386 444 40,000  Level Houston Center
19:42 31.7756 -90.9797 247° West 396 456 40,000  Level Houston Center
19:43 31.7344 -91.0997 248° West 399 459 40,000  Level Houston Center
19:44 31.6906 -91.2383 250° West 388 447 40,000  Level Houston Center
19:45 31.6511 -91.3558 249° West 388 447 40,000  Level Houston Center
19:46 31.6106 -91.4728 248° West 387 445 40,000  Level Houston Center
19:48 31.5708 -91.5892 248° West 386 444 40,000  Level Houston Center
19:49 31.5297 -91.7044 247° West 386 444 40,000  Level Houston Center
19:50 31.4881 -91.8211 247° West 387 445 40,000  Level Houston Center
19:51 31.4367 -91.9625 247° West 391 450 40,000  Level Houston Center
19:52 31.3947 -92.0778 247° West 392 451 40,000  Level Houston Center
19:53 31.3531 -92.1964 248° West 395 455 40,000  Level Houston Center
19:54 31.3117 -92.3131 247° West 392 451 40,000  Level Houston Center
19:55 31.2686 -92.4294 247° West 393 452 40,000  Level Houston Center
19:56 31.2267 -92.5450 247° West 390 449 40,000  Level Houston Center
19:57 31.1861 -92.6608 248° West 388 447 40,000  Level Houston Center
19:58 31.1367 -92.7975 247° West 382 440 40,000  Level Houston Center
19:59 31.0969 -92.9069 247° West 369 425 40,000 -300 Level Houston Center
20:00 31.0586 -93.0125 247° West 358 412 39,400 -780 Descending Houston Center
20:01 31.0183 -93.1192 246° West 361 415 38,500 -960 Descending Houston Center
20:02 30.9794 -93.2281 247° West 366 421 37,500 -1,020 Descending Houston Center
20:03 30.9394 -93.3367 247° West 367 422 36,500 -1,080 Descending Houston Center
20:04 30.9075 -93.4683 254° West 353 406 35,300 -1,080 Descending Houston Center
20:05 30.9142 -93.5819 274° West 353 406 34,300 -1,020 Descending Houston Center
20:06 30.9219 -93.6950 275° West 353 406 33,300 -1,080 Descending Houston Center
20:07 30.9006 -93.7992 257° West 349 402 32,100 -1,380 Descending Houston Center
20:08 30.8506 -93.8883 237° Southwest 335 386 30,500 -1,800 Descending Houston Center
20:09 30.7914 -93.9944 237° Southwest 329 379 28,500 -1,800 Descending Houston Center
20:10 30.7447 -94.0781 237° Southwest 316 364 26,900 -1,500 Descending Houston Center
20:11 30.6986 -94.1592 237° Southwest 306 352 25,400 -1,440 Descending Houston Center
20:12 30.6539 -94.2378 237° Southwest 298 343 24,000 -1,320 Descending Houston Center
20:13 30.6097 -94.3156 237° Southwest 293 337 22,700 -1,440 Descending Houston Center
20:14 30.5756 -94.3756 237° Southwest 282 325 21,600 -1,380 Descending Houston Center
20:14 30.5664 -94.3925 238° Southwest 288 331 21,300 -1,560 Descending Houston Center
20:15 30.5433 -94.4331 237° Southwest 289 333 20,500 -1,800 Descending Houston Center
20:15 30.5128 -94.4858 236° Southwest 290 334 19,500 -1,380 Descending Houston Center
20:16 30.4986 -94.5119 238° Southwest 295 339 19,100 -1,260 Descending Houston Center
20:16 30.4722 -94.5531 233° Southwest 291 335 18,200 -1,680 Descending Houston Center
20:17 30.4514 -94.5883 236° Southwest 294 338 17,400 -1,680 Descending Houston Center
20:17 30.4167 -94.6408 233° Southwest 289 333 16,500 -1,380 Descending Houston Center
20:18 30.4000 -94.6653 232° Southwest 284 327 16,000 -1,560 Descending Houston Center
20:18 30.3692 -94.7131 233° Southwest 283 326 14,900 -1,620 Descending Houston Center
20:19 30.3467 -94.7447 231° Southwest 283 326 14,200 -1,560 Descending Houston Center
20:19 30.3219 -94.7872 236° Southwest 286 329 13,300 -1,200 Descending Houston Center
20:20 30.3014 -94.8208 235° Southwest 285 328 13,000 -780 Descending Houston Center
20:21 30.2758 -94.8567 230° Southwest 275 316 12,500 -900 Descending Houston Center
20:21 30.2536 -94.8922 234° Southwest 267 307 12,100 -900 Descending Houston Center
20:22 30.2314 -94.9267 233° Southwest 271 312 11,600 -1,020 Descending Houston Center
20:22 30.2075 -94.9608 231° Southwest 273 314 11,100 -600 Descending Houston Center
20:23 30.1858 -94.9967 235° Southwest 273 314 11,000 -240 Descending Houston Center
20:23 30.1617 -95.0317 231° Southwest 268 308 10,900 -780 Descending Houston Center
20:24 30.1308 -95.0756 231° Southwest 266 306 10,200 -900 Descending Houston Center
20:24 30.1058 -95.0847 198° South 257 296 10,000 -240 Descending Houston Center
20:25 30.0619 -95.1022 199° South 260 299 10,000  Level Houston Center
20:25 30.0308 -95.1156 200° South 254 292 10,000 -120 Level Houston Center
20:26 29.9956 -95.1317 202° Southwest 257 296 9,900 -840 Descending Houston Center
20:27 29.9286 -95.1603 200° South 258 297 8,600 -1,500 Descending Houston Center
20:27 29.9019 -95.1725 202° Southwest 257 296 8,000 -720 Descending Houston Center
20:28 29.8411 -95.1967 199° South 207 238 7,700 -540 Descending Houston Center
20:29 29.8106 -95.2106 202° Southwest 213 245 7,100 -960 Descending Houston Center
20:30 29.7475 -95.2378 201° Southwest 205 236 6,000 -900 Descending Houston Center
20:30 29.7319 -95.2436 198° South 209 241 6,000  Level Houston Center
20:31 29.6933 -95.2628 203° Southwest 210 242 6,000 -300 Level Houston Center
20:32 29.6486 -95.3078 221° Southwest 216 249 5,500 -840 Descending Houston Center
20:33 29.6333 -95.3703 254° West 240 276 4,300 -1,140 Descending Houston Center
20:33 29.6456 -95.4008 295° West 247 284 4,000 -1,020 Descending Houston Center
20:34 29.6622 -95.4397 296° West 241 277 3,300 -1,020 Descending Houston Center
20:34 29.6850 -95.4636 318° Northwest 245 282 3,000 -780 Descending Houston Center
20:35 29.7211 -95.4986 320° Northwest 236 272 2,500 -720 Descending Houston Center
20:35 29.7386 -95.5003 355° North 217 250 2,300 -540 Descending Houston Center
20:36 29.7644 -95.4697 46° Northeast 212 244 2,000 -300 Descending Houston Center
20:36 29.7636 -95.4517 93° East 163 188 2,000  Level Houston Center
20:37 29.7589 -95.4172 99° East 182 209 2,000  Level Houston Center
20:37 29.7489 -95.4053 134° Southeast 155 178 2,000  Level Houston Center
20:38 29.7297 -95.3792 130° Southeast 169 194 2,000  Level Houston Center
20:38 29.7203 -95.3678 134° Southeast 155 178 2,000 -540 Level Houston Center
20:39 29.7003 -95.3450 135° Southeast 158 182 1,500 -720 Descending Houston Center
20:40 29.6756 -95.3153 134° Southeast 144 166 800 -720 Descending Houston Center
20:41 29.6517 -95.2875 135° Southeast 132 152 100 -720 Descending Houston Center